Time;durP1;ratioP1;P1;durP2;ratioP2;P2;SDS_P1;SDS_P2;PMS_P1;PMS_P2;Temp;Humidity;BMP_temperature;BMP_pressure;BME280_temperature;BME280_humidity;BME280_pressure;Samples;Min_cycle;Max_cycle;Signal;HPM_P1;HPM_P2
2022/10/06 00:00:52;;;;;;;1.23;1.10;;;12.30;99.90;;;;;;5027910;28;20136;-84
2022/10/06 00:03:22;;;;;;;2.70;1.27;;;12.30;99.90;;;;;;5028878;28;20045;-83
2022/10/06 00:05:49;;;;;;;1.20;1.10;;;12.30;99.90;;;;;;5028019;28;20111;-84
2022/10/06 00:08:16;;;;;;;1.85;1.35;;;12.20;99.90;;;;;;5028554;28;20018;-83
2022/10/06 00:10:42;;;;;;;1.80;1.20;;;12.20;99.90;;;;;;5047009;28;20390;-84
2022/10/06 00:13:08;;;;;;;3.50;1.65;;;12.20;99.90;;;;;;5028934;28;20017;-84
2022/10/06 00:15:34;;;;;;;1.17;1.08;;;12.20;99.90;;;;;;5029533;28;20035;-84
2022/10/06 00:18:00;;;;;;;1.65;1.13;;;12.20;99.90;;;;;;5027769;28;20025;-84
2022/10/06 00:20:27;;;;;;;2.35;1.67;;;12.10;99.90;;;;;;5045923;28;20088;-84
2022/10/06 00:22:53;;;;;;;1.48;1.38;;;12.10;99.90;;;;;;5044449;28;20073;-84
2022/10/06 00:25:21;;;;;;;1.63;1.30;;;12.10;99.90;;;;;;5025822;28;20058;-83
2022/10/06 00:27:49;;;;;;;1.75;1.50;;;12.10;99.90;;;;;;5027474;28;20085;-83
2022/10/06 00:30:20;;;;;;;1.83;1.23;;;12.10;99.90;;;;;;5031294;28;20022;-84
2022/10/06 00:33:00;;;;;;;2.27;1.40;;;12.10;99.90;;;;;;5007097;28;20137;-84
2022/10/06 00:35:30;;;;;;;1.20;1.10;;;12.10;99.90;;;;;;5013926;28;20653;-84
2022/10/06 00:37:59;;;;;;;1.30;1.20;;;12.10;99.90;;;;;;5035547;28;20021;-84
2022/10/06 00:40:25;;;;;;;1.15;1.05;;;12.00;99.90;;;;;;5026628;28;20053;-85
2022/10/06 00:43:05;;;;;;;1.80;1.27;;;12.00;99.90;;;;;;5027481;28;20030;-84
2022/10/06 00:45:46;;;;;;;2.13;0.98;;;12.00;99.90;;;;;;5030018;28;20404;-84
2022/10/06 00:48:17;;;;;;;2.65;1.13;;;12.00;99.90;;;;;;5010335;28;20026;-84
2022/10/06 00:50:43;;;;;;;3.30;1.15;;;12.00;99.90;;;;;;5008627;28;20021;-83
2022/10/06 00:53:09;;;;;;;1.05;0.98;;;12.00;99.90;;;;;;5028561;28;20026;-83
2022/10/06 00:55:37;;;;;;;2.17;1.30;;;11.90;99.90;;;;;;5019362;28;20026;-84
2022/10/06 00:58:05;;;;;;;2.10;1.15;;;11.90;99.90;;;;;;5024039;28;20030;-83
2022/10/06 01:00:31;;;;;;;1.02;0.93;;;11.90;99.90;;;;;;5031164;28;20035;-84
2022/10/06 01:03:10;;;;;;;1.30;1.20;;;11.90;99.90;;;;;;5028657;28;20025;-83
2022/10/06 01:05:42;;;;;;;1.08;0.98;;;11.80;99.90;;;;;;5032226;28;20413;-85
2022/10/06 01:08:08;;;;;;;1.35;1.25;;;11.80;99.90;;;;;;5018596;28;20033;-83
2022/10/06 01:10:34;;;;;;;2.40;0.93;;;11.80;99.90;;;;;;5008970;28;20046;-84
2022/10/06 01:13:01;;;;;;;1.75;1.23;;;11.80;99.90;;;;;;5008976;28;20084;-84
2022/10/06 01:15:27;;;;;;;2.92;1.20;;;11.80;99.90;;;;;;5026944;28;20044;-84
2022/10/06 01:17:57;;;;;;;1.42;0.95;;;11.80;99.90;;;;;;5025583;28;20018;-84
2022/10/06 01:20:55;;;;;;;1.20;1.10;;;11.80;99.90;;;;;;5026626;28;20049;-85
2022/10/06 01:23:39;;;;;;;0.90;0.90;;;11.80;99.90;;;;;;5025078;28;20057;-83
2022/10/06 01:26:08;;;;;;;2.88;1.20;;;11.80;99.90;;;;;;5025676;28;20121;-83
2022/10/06 01:28:45;;;;;;;2.45;0.90;;;11.80;99.90;;;;;;5026048;28;20033;-85
2022/10/06 01:31:14;;;;;;;1.20;1.10;;;11.80;99.90;;;;;;5024384;28;20060;-83
2022/10/06 01:33:40;;;;;;;3.95;1.20;;;11.70;99.90;;;;;;5025658;28;20065;-83
2022/10/06 01:36:06;;;;;;;1.45;1.13;;;11.70;99.90;;;;;;5025586;28;20498;-83
2022/10/06 01:38:32;;;;;;;1.58;1.20;;;11.70;99.90;;;;;;5025466;28;20076;-84
2022/10/06 01:40:58;;;;;;;2.42;1.20;;;11.70;99.90;;;;;;5025349;28;20027;-83
2022/10/06 01:43:24;;;;;;;1.98;1.30;;;11.70;99.90;;;;;;5024247;28;20033;-83
2022/10/06 01:45:54;;;;;;;1.48;1.38;;;11.70;99.90;;;;;;5024547;28;20026;-83
2022/10/06 01:48:20;;;;;;;1.42;1.33;;;11.70;99.90;;;;;;5007449;28;20057;-82
2022/10/06 01:50:46;;;;;;;1.23;1.00;;;11.60;99.90;;;;;;5011824;28;20032;-83
2022/10/06 01:53:12;;;;;;;3.10;1.10;;;11.70;99.90;;;;;;5044799;28;20018;-84
2022/10/06 01:55:38;;;;;;;0.98;0.80;;;11.60;99.90;;;;;;5008259;28;20419;-84
2022/10/06 01:58:03;;;;;;;1.02;0.93;;;11.60;99.90;;;;;;5007807;28;20030;-84
2022/10/06 02:00:29;;;;;;;1.33;1.17;;;11.70;99.90;;;;;;5041306;28;20022;-84
2022/10/06 02:02:55;;;;;;;1.58;1.00;;;11.70;99.90;;;;;;5027477;28;20033;-82
2022/10/06 02:05:20;;;;;;;0.98;0.98;;;11.70;99.90;;;;;;5027458;28;20402;-83
2022/10/06 02:07:46;;;;;;;0.95;0.80;;;11.60;99.90;;;;;;5044971;28;20025;-82
2022/10/06 02:10:12;;;;;;;1.30;0.85;;;11.60;99.90;;;;;;5043455;28;20022;-84
2022/10/06 02:12:38;;;;;;;3.13;0.80;;;11.70;99.90;;;;;;5027473;28;20094;-84
2022/10/06 02:15:05;;;;;;;1.00;1.00;;;11.70;99.90;;;;;;5045715;28;20044;-83
2022/10/06 02:17:31;;;;;;;1.90;0.93;;;11.70;99.90;;;;;;5044220;28;20036;-83
2022/10/06 02:19:56;;;;;;;0.80;0.80;;;11.70;99.90;;;;;;5027187;28;20391;-84
2022/10/06 02:22:22;;;;;;;1.30;0.80;;;11.70;99.90;;;;;;5027298;28;20026;-85
2022/10/06 02:24:48;;;;;;;1.25;0.80;;;11.70;99.90;;;;;;5043370;28;20041;-85
2022/10/06 02:27:14;;;;;;;1.25;0.82;;;11.70;99.90;;;;;;5024230;28;20102;-85
2022/10/06 02:29:39;;;;;;;1.40;1.05;;;11.60;99.90;;;;;;5007265;28;20072;-83
2022/10/06 02:32:05;;;;;;;1.17;0.95;;;11.60;99.90;;;;;;5028410;28;20479;-84
2022/10/06 02:34:43;;;;;;;1.55;1.08;;;11.70;99.90;;;;;;5005547;28;20037;-84
2022/10/06 02:37:13;;;;;;;1.10;1.00;;;11.70;99.90;;;;;;5023561;28;20498;-84
2022/10/06 02:39:38;;;;;;;0.98;0.90;;;11.70;99.90;;;;;;5000136;22;20098;-79
2022/10/06 02:42:04;;;;;;;0.90;0.90;;;11.70;99.90;;;;;;4999676;28;20030;-79
2022/10/06 02:44:30;;;;;;;2.35;0.90;;;11.70;99.90;;;;;;5003584;28;20038;-79
2022/10/06 02:46:55;;;;;;;0.85;0.85;;;11.60;99.90;;;;;;5001342;28;20045;-79
2022/10/06 02:49:21;;;;;;;0.70;0.70;;;11.60;99.90;;;;;;5001039;28;20018;-79
2022/10/06 02:51:47;;;;;;;1.25;1.10;;;11.60;99.90;;;;;;4987971;28;20039;-79
2022/10/06 02:54:12;;;;;;;3.15;1.30;;;11.60;99.90;;;;;;4984265;28;20027;-78
2022/10/06 02:56:38;;;;;;;1.05;0.95;;;11.60;99.90;;;;;;4979264;28;20105;-78
2022/10/06 02:59:04;;;;;;;1.25;0.90;;;11.60;99.90;;;;;;4982305;28;20026;-78
2022/10/06 03:01:29;;;;;;;2.17;1.30;;;11.60;99.90;;;;;;4979553;28;20121;-78
2022/10/06 03:03:55;;;;;;;1.27;1.17;;;11.60;99.90;;;;;;4980972;28;20086;-80
2022/10/06 03:06:23;;;;;;;1.63;1.08;;;11.60;99.90;;;;;;4982179;28;20030;-79
2022/10/06 03:09:00;;;;;;;1.75;1.02;;;11.60;99.90;;;;;;4982920;28;20114;-77
2022/10/06 03:11:32;;;;;;;1.95;1.00;;;11.60;99.90;;;;;;4981991;28;20463;-79
2022/10/06 03:13:58;;;;;;;1.17;1.10;;;11.50;99.90;;;;;;4982408;28;20048;-80
2022/10/06 03:16:26;;;;;;;1.77;0.82;;;11.50;99.90;;;;;;4984260;28;20790;-79
2022/10/06 03:18:53;;;;;;;1.50;1.00;;;11.50;99.90;;;;;;4981446;28;20030;-80
2022/10/06 03:21:24;;;;;;;3.83;0.90;;;11.50;99.90;;;;;;4980869;28;20023;-79
2022/10/06 03:23:52;;;;;;;1.63;1.20;;;11.50;99.90;;;;;;4981865;28;20408;-79
2022/10/06 03:26:21;;;;;;;0.98;0.95;;;11.50;99.90;;;;;;4981002;28;20062;-79
2022/10/06 03:28:47;;;;;;;1.98;1.00;;;11.50;99.90;;;;;;4983310;28;20046;-80
2022/10/06 03:31:13;;;;;;;1.65;1.23;;;11.50;99.90;;;;;;4981292;28;20027;-79
2022/10/06 03:33:39;;;;;;;1.20;1.10;;;11.40;99.90;;;;;;4980515;28;20436;-79
2022/10/06 03:36:13;;;;;;;2.13;1.00;;;11.40;99.90;;;;;;4963699;28;20033;-79
2022/10/06 03:38:40;;;;;;;1.13;0.80;;;11.40;99.90;;;;;;4965261;28;20114;-79
2022/10/06 03:41:09;;;;;;;2.58;1.10;;;11.40;99.90;;;;;;4983825;28;20149;-79
2022/10/06 03:43:35;;;;;;;1.20;1.10;;;11.40;99.90;;;;;;4982549;28;20026;-80
2022/10/06 03:46:02;;;;;;;1.10;1.00;;;11.40;99.90;;;;;;4991700;28;20023;-79
2022/10/06 03:48:29;;;;;;;0.95;0.95;;;11.40;99.90;;;;;;4997047;28;20065;-79
2022/10/06 03:51:07;;;;;;;1.73;1.05;;;11.40;99.90;;;;;;4997285;28;20031;-79
2022/10/06 03:53:33;;;;;;;1.20;0.90;;;11.30;99.90;;;;;;4993978;28;20054;-79
2022/10/06 03:56:07;;;;;;;1.25;1.08;;;11.30;99.90;;;;;;4980947;28;20073;-79
2022/10/06 03:58:40;;;;;;;0.73;0.70;;;11.30;99.90;;;;;;4981246;28;20026;-79
2022/10/06 04:01:16;;;;;;;1.00;1.00;;;11.30;99.90;;;;;;4963659;28;20023;-79
2022/10/06 04:03:42;;;;;;;2.83;0.77;;;11.30;99.90;;;;;;4991643;28;20033;-79
2022/10/06 04:06:14;;;;;;;2.53;0.90;;;11.30;99.90;;;;;;4983137;28;20038;-80
2022/10/06 04:08:40;;;;;;;2.97;1.10;;;11.30;99.90;;;;;;4981488;28;20492;-79
2022/10/06 04:11:09;;;;;;;1.00;0.90;;;11.30;99.90;;;;;;4999559;28;20022;-79
2022/10/06 04:13:35;;;;;;;2.08;1.20;;;11.30;99.90;;;;;;4993794;28;20499;-79
2022/10/06 04:16:18;;;;;;;1.00;0.90;;;11.30;99.90;;;;;;4979816;28;20022;-78
2022/10/06 04:18:47;;;;;;;1.48;0.82;;;11.30;99.90;;;;;;4980123;28;20046;-79
2022/10/06 04:21:13;;;;;;;0.90;0.85;;;11.20;99.90;;;;;;4979548;28;20033;-80
2022/10/06 04:23:39;;;;;;;0.90;0.88;;;11.20;99.90;;;;;;4982962;28;20022;-80
2022/10/06 04:26:08;;;;;;;0.73;0.70;;;11.20;99.90;;;;;;4960136;28;20027;-80
2022/10/06 04:28:36;;;;;;;0.85;0.85;;;11.20;99.90;;;;;;4961290;28;20405;-79
2022/10/06 04:31:04;;;;;;;1.83;0.95;;;11.20;99.90;;;;;;4981659;28;20043;-79
2022/10/06 04:33:33;;;;;;;1.50;0.88;;;11.20;99.90;;;;;;4982093;28;20027;-79
2022/10/06 04:36:06;;;;;;;2.92;0.90;;;11.20;99.90;;;;;;4981176;28;20052;-80
2022/10/06 04:38:35;;;;;;;1.35;1.13;;;11.20;99.90;;;;;;4983231;28;20093;-79
2022/10/06 04:41:07;;;;;;;1.85;0.95;;;11.20;99.90;;;;;;4981563;28;20023;-80
2022/10/06 04:43:35;;;;;;;0.90;0.80;;;11.30;99.90;;;;;;4983716;28;20026;-79
2022/10/06 04:46:02;;;;;;;1.45;1.10;;;11.30;99.90;;;;;;4964411;28;20030;-78
2022/10/06 04:48:29;;;;;;;2.10;1.15;;;11.30;99.90;;;;;;4984930;28;20039;-78
2022/10/06 04:51:02;;;;;;;1.02;0.88;;;11.30;99.90;;;;;;4982105;28;20042;-78
2022/10/06 04:53:29;;;;;;;1.52;1.20;;;11.30;99.90;;;;;;4982192;28;20428;-79
2022/10/06 04:56:04;;;;;;;1.52;1.02;;;11.30;99.90;;;;;;4981755;28;20031;-78
2022/10/06 04:58:38;;;;;;;1.13;0.98;;;11.30;99.90;;;;;;4982375;28;20023;-79
2022/10/06 05:01:15;;;;;;;1.38;1.02;;;11.20;99.90;;;;;;4964106;28;20369;-79
2022/10/06 05:03:41;;;;;;;0.68;0.68;;;11.30;99.90;;;;;;4983992;28;20086;-79
2022/10/06 05:06:14;;;;;;;0.73;0.73;;;11.20;99.90;;;;;;4983527;28;20038;-79
2022/10/06 05:08:40;;;;;;;0.75;0.70;;;11.20;99.90;;;;;;4981807;28;20480;-79
2022/10/06 05:11:09;;;;;;;0.93;0.65;;;11.20;99.90;;;;;;4981102;28;20050;-79
2022/10/06 05:13:36;;;;;;;0.52;0.52;;;11.20;99.90;;;;;;4980903;28;20102;-79
2022/10/06 05:16:04;;;;;;;2.35;0.80;;;11.20;99.90;;;;;;4963294;28;20027;-79
2022/10/06 05:18:30;;;;;;;1.23;1.02;;;11.20;99.90;;;;;;4980913;28;20030;-80
2022/10/06 05:21:02;;;;;;;2.25;0.80;;;11.20;99.90;;;;;;4981574;28;20023;-80
2022/10/06 05:23:28;;;;;;;;;;;11.10;99.90;;;;;;4980982;28;20022;-78
2022/10/06 05:25:56;;;;;;;1.38;0.88;;;11.10;99.90;;;;;;4983913;28;19925;-78
2022/10/06 05:28:26;;;;;;;1.15;0.90;;;11.10;99.90;;;;;;4982661;28;20271;-78
2022/10/06 05:30:57;;;;;;;2.38;0.98;;;11.20;99.90;;;;;;5000429;28;20026;-79
2022/10/06 05:33:24;;;;;;;1.10;1.00;;;11.20;99.90;;;;;;4981978;28;20041;-79
2022/10/06 05:35:56;;;;;;;2.13;1.33;;;11.20;99.90;;;;;;4998877;28;20026;-79
2022/10/06 05:38:22;;;;;;;1.63;1.00;;;11.20;99.90;;;;;;4979172;28;20027;-79
2022/10/06 05:40:48;;;;;;;1.20;1.10;;;11.20;99.90;;;;;;4981497;28;20417;-79
2022/10/06 05:43:15;;;;;;;0.77;0.77;;;11.20;99.90;;;;;;4980515;28;20038;-79
2022/10/06 05:45:50;;;;;;;1.08;0.90;;;11.30;99.90;;;;;;4981183;28;20062;-79
2022/10/06 05:48:17;;;;;;;1.63;1.00;;;11.30;99.90;;;;;;4989827;28;20079;-78
2022/10/06 05:50:42;;;;;;;1.08;0.98;;;11.30;99.90;;;;;;4990413;28;20015;-79
2022/10/06 05:53:09;;;;;;;5.70;2.38;;;11.30;99.90;;;;;;4981913;28;20569;-79
2022/10/06 05:55:34;;;;;;;2.47;1.67;;;11.30;99.90;;;;;;4981351;28;20093;-79
2022/10/06 05:58:00;;;;;;;3.10;1.70;;;11.40;99.90;;;;;;4978896;28;20026;-78
2022/10/06 06:00:25;;;;;;;3.00;1.90;;;11.40;99.90;;;;;;4979395;28;20030;-79
2022/10/06 06:02:51;;;;;;;6.32;3.30;;;11.40;99.90;;;;;;4982469;28;20030;-79
2022/10/06 06:05:17;;;;;;;5.18;2.92;;;11.50;99.90;;;;;;4979553;28;20058;-79
2022/10/06 06:07:42;;;;;;;4.53;2.60;;;11.50;99.90;;;;;;4979720;28;20027;-79
2022/10/06 06:10:08;;;;;;;2.30;2.00;;;11.60;99.90;;;;;;4979440;28;20027;-78
2022/10/06 06:12:34;;;;;;;2.15;1.70;;;11.60;99.70;;;;;;4979741;28;20031;-78
2022/10/06 06:17:44;;;;;;;2.78;1.45;;;11.70;99.50;;;;;;4980897;28;20105;-79
2022/10/06 06:20:09;;;;;;;2.88;1.40;;;11.70;99.40;;;;;;4979980;28;20031;-80
2022/10/06 06:22:35;;;;;;;2.33;1.40;;;11.80;99.30;;;;;;4979649;28;20023;-80
2022/10/06 06:25:01;;;;;;;5.95;1.65;;;11.90;99.10;;;;;;4979576;28;20027;-79
2022/10/06 06:27:27;;;;;;;2.22;1.25;;;12.00;99.00;;;;;;4978374;28;20038;-80
2022/10/06 06:29:53;;;;;;;3.95;1.10;;;12.00;98.70;;;;;;4980465;28;20468;-79
2022/10/06 06:32:18;;;;;;;1.15;0.90;;;12.10;98.50;;;;;;4977919;28;20038;-80
2022/10/06 06:34:44;;;;;;;0.80;0.75;;;12.10;98.30;;;;;;4980218;28;20027;-79
2022/10/06 06:37:10;;;;;;;1.73;1.13;;;12.20;98.10;;;;;;4981039;28;20473;-79
2022/10/06 06:39:35;;;;;;;1.60;1.10;;;12.30;97.90;;;;;;4980864;28;20104;-78
2022/10/06 06:42:03;;;;;;;2.92;1.30;;;12.30;97.70;;;;;;4980611;28;20118;-79
2022/10/06 06:44:29;;;;;;;1.90;0.75;;;12.40;97.60;;;;;;4980658;28;20023;-79
2022/10/06 06:46:55;;;;;;;5.90;2.38;;;12.50;97.50;;;;;;4981440;28;20030;-79
2022/10/06 06:49:21;;;;;;;5.10;1.80;;;12.60;97.20;;;;;;4967067;28;20078;-80
2022/10/06 06:51:51;;;;;;;2.33;1.58;;;12.70;97.00;;;;;;4964070;28;20023;-80
2022/10/06 06:54:17;;;;;;;4.40;1.52;;;12.80;96.70;;;;;;4967002;28;20019;-80
2022/10/06 06:56:44;;;;;;;2.35;1.65;;;12.90;96.50;;;;;;4986285;28;20053;-80
2022/10/06 06:59:11;;;;;;;3.28;1.65;;;13.00;96.20;;;;;;5008655;28;20022;-80
2022/10/06 07:01:46;;;;;;;2.40;1.50;;;13.10;96.00;;;;;;5005120;28;20033;-79
2022/10/06 07:04:13;;;;;;;2.53;1.50;;;13.20;95.60;;;;;;4985440;28;20030;-79
2022/10/06 07:06:40;;;;;;;9.20;2.45;;;13.30;95.30;;;;;;4996483;28;20035;-78
2022/10/06 07:09:06;;;;;;;4.68;1.88;;;13.50;94.90;;;;;;4993509;28;20046;-80
2022/10/06 07:11:37;;;;;;;4.85;2.28;;;13.60;94.50;;;;;;4998685;28;20038;-79
2022/10/06 07:14:10;;;;;;;2.35;1.67;;;13.80;94.40;;;;;;4985504;28;20065;-79
2022/10/06 07:25:11;;;;;;;5.70;2.15;;;14.40;92.60;;;;;;4998075;28;20113;-79
2022/10/06 07:27:46;;;;;;;3.75;1.98;;;14.60;92.10;;;;;;4992442;28;20061;-80
2022/10/06 07:30:18;;;;;;;1.90;1.50;;;14.80;91.50;;;;;;4980456;28;20062;-78
2022/10/06 07:32:44;;;;;;;3.35;1.83;;;15.10;90.60;;;;;;4980240;28;20022;-79
2022/10/06 07:35:11;;;;;;;5.18;2.55;;;15.30;90.20;;;;;;4980440;28;20026;-80
2022/10/06 07:37:37;;;;;;;2.13;1.92;;;15.50;89.50;;;;;;4978909;28;20039;-79
2022/10/06 07:40:05;;;;;;;3.22;1.80;;;15.70;88.40;;;;;;4979255;28;20519;-79
2022/10/06 07:42:47;;;;;;;5.95;1.70;;;15.90;87.10;;;;;;4979982;28;20035;-79
2022/10/06 07:48:03;;;;;;;12.40;2.47;;;16.30;84.30;;;;;;4985972;28;20037;-79
2022/10/06 07:50:29;;;;;;;12.43;2.30;;;16.50;82.70;;;;;;5009420;28;20033;-77
2022/10/06 07:52:55;;;;;;;4.35;1.83;;;16.70;81.80;;;;;;4996241;28;20015;-79
2022/10/06 07:55:20;;;;;;;12.10;2.40;;;16.90;80.80;;;;;;4977644;28;20042;-78
2022/10/06 07:57:48;;;;;;;6.15;2.08;;;17.00;79.60;;;;;;4994464;28;20494;-77
2022/10/06 08:00:19;;;;;;;7.78;2.33;;;17.10;79.40;;;;;;4993283;28;20036;-79
2022/10/06 08:02:44;;;;;;;6.18;1.60;;;17.30;78.60;;;;;;4977183;28;20022;-77
2022/10/06 08:05:10;;;;;;;7.53;2.28;;;17.40;77.20;;;;;;4994912;28;20106;-78
2022/10/06 08:07:36;;;;;;;19.13;3.90;;;17.60;77.10;;;;;;4995833;28;20068;-79
2022/10/06 08:10:02;;;;;;;16.67;3.22;;;17.70;76.80;;;;;;4998549;28;20029;-77
2022/10/06 08:12:36;;;;;;;5.70;1.90;;;17.80;76.40;;;;;;5000714;28;20034;-78
2022/10/06 08:15:04;;;;;;;5.95;1.90;;;18.00;76.50;;;;;;4998435;28;20018;-80
2022/10/06 08:17:30;;;;;;;4.43;2.22;;;18.10;75.70;;;;;;4998630;28;20526;-78
2022/10/06 08:19:55;;;;;;;6.15;2.10;;;18.30;75.10;;;;;;4998126;28;20116;-80
2022/10/06 08:22:26;;;;;;;3.35;1.60;;;18.50;74.60;;;;;;5000584;28;20080;-79
2022/10/06 08:24:53;;;;;;;7.32;1.88;;;18.60;74.00;;;;;;4998055;28;20176;-78
2022/10/06 08:27:20;;;;;;;5.68;1.75;;;18.70;73.80;;;;;;5000229;28;20494;-78
2022/10/06 08:29:45;;;;;;;2.95;2.08;;;18.90;73.20;;;;;;4992816;28;20458;-77
2022/10/06 08:32:11;;;;;;;4.25;1.80;;;18.90;72.50;;;;;;4979068;28;20046;-76
2022/10/06 08:34:37;;;;;;;4.95;1.73;;;19.00;72.90;;;;;;4979425;28;20030;-78
2022/10/06 08:37:03;;;;;;;3.08;1.95;;;19.00;72.40;;;;;;4978551;28;20392;-77
2022/10/06 09:13:54;;;;;;;2.53;1.85;;;20.40;68.20;;;;;;4999490;28;20057;-84
2022/10/06 09:20:52;;;;;;;3.42;1.23;;;20.50;67.40;;;;;;5025022;28;20094;-85
2022/10/06 09:23:49;;;;;;;;;;;20.70;67.50;;;;;;4942432;29;20031;-84
2022/10/06 09:27:05;;;;;;;2.42;1.42;;;20.90;66.90;;;;;;4945757;28;19911;-86
2022/10/06 09:29:32;;;;;;;2.03;1.20;;;21.10;66.40;;;;;;4925417;29;20040;-83
2022/10/06 09:36:05;;;;;;;3.58;1.85;;;21.20;65.50;;;;;;4989544;28;20034;-84
2022/10/06 09:39:05;;;;;;;3.22;2.03;;;21.10;65.60;;;;;;4986836;28;20022;-84
2022/10/06 09:42:28;;;;;;;1.33;1.23;;;21.20;66.40;;;;;;4990105;28;20037;-85
2022/10/06 09:45:16;;;;;;;4.22;1.77;;;21.20;66.40;;;;;;4967950;28;20117;-85
2022/10/06 09:47:45;;;;;;;5.13;2.10;;;21.10;66.10;;;;;;5026945;28;20057;-83
2022/10/06 09:50:37;;;;;;;3.50;1.80;;;20.90;66.90;;;;;;5030442;28;20059;-84
2022/10/06 09:53:08;;;;;;;;;;;20.80;67.20;;;;;;5025694;28;20034;-84
2022/10/06 09:56:01;;;;;;;4.20;1.98;;;20.80;66.90;;;;;;5006370;28;19905;-85
2022/10/06 09:58:36;;;;;;;4.70;2.40;;;20.80;67.40;;;;;;4988150;28;20523;-84
2022/10/06 10:01:06;;;;;;;3.65;1.83;;;20.70;67.90;;;;;;5009330;28;20086;-86
2022/10/06 10:03:54;;;;;;;6.07;2.40;;;20.80;68.20;;;;;;5017334;28;20017;-85
2022/10/06 10:06:22;;;;;;;2.35;1.60;;;21.10;67.80;;;;;;5030256;28;20116;-84
2022/10/06 10:08:48;;;;;;;2.95;1.92;;;21.20;68.00;;;;;;5033719;28;20462;-84
2022/10/06 10:14:19;;;;;;;2.25;1.85;;;21.40;67.50;;;;;;5036704;28;20028;-84
2022/10/06 10:16:46;;;;;;;3.72;1.73;;;21.50;67.60;;;;;;5030988;28;20029;-84
2022/10/06 10:19:42;;;;;;;4.22;1.95;;;21.60;66.70;;;;;;5012916;28;20033;-84
2022/10/06 10:23:02;;;;;;;2.95;1.42;;;21.60;66.70;;;;;;5014551;28;20034;-84
2022/10/06 10:26:38;;;;;;;;;;;;;;;;;;;;;
2022/10/06 10:29:20;;;;;;;4.72;2.30;;;21.60;67.30;;;;;;5029084;28;20030;-84
2022/10/06 10:31:58;;;;;;;3.58;2.00;;;21.50;67.20;;;;;;5008425;28;20006;-86
2022/10/06 10:34:33;;;;;;;4.13;2.35;;;21.50;67.80;;;;;;5029979;28;20013;-85
2022/10/06 10:37:34;;;;;;;6.07;2.38;;;21.60;67.60;;;;;;5038377;28;20069;-85
2022/10/06 10:40:20;;;;;;;4.13;2.33;;;21.60;66.80;;;;;;5001245;28;20048;-86
2022/10/06 10:43:05;;;;;;;;;;;;;;;;;;;;;
2022/10/06 10:45:47;;;;;;;5.75;2.50;;;21.10;68.60;;;;;;5035563;28;20136;-85
2022/10/06 10:48:35;;;;;;;3.13;2.53;;;20.70;69.80;;;;;;5019158;28;20068;-84
2022/10/06 10:53:57;;;;;;;2.30;1.83;;;20.60;71.30;;;;;;5040713;28;20048;-84
2022/10/06 10:56:35;;;;;;;3.92;2.30;;;20.70;71.20;;;;;;5040256;28;20026;-85
2022/10/06 10:59:36;;;;;;;7.32;2.45;;;20.70;71.50;;;;;;5010404;28;20454;-84
2022/10/06 11:02:38;;;;;;;4.47;2.25;;;20.90;71.10;;;;;;5018863;28;20053;-84
2022/10/06 11:05:48;;;;;;;4.93;2.25;;;21.50;70.40;;;;;;5018089;28;20148;-84
2022/10/06 11:08:42;;;;;;;4.05;2.50;;;21.80;68.30;;;;;;4980195;28;20042;-85
2022/10/06 11:11:33;;;;;;;6.70;2.13;;;21.80;68.30;;;;;;5004831;28;20032;-85
2022/10/06 11:14:34;;;;;;;2.67;2.10;;;21.70;68.60;;;;;;4988107;28;20050;-85
2022/10/06 11:20:20;;;;;;;4.25;2.28;;;21.20;70.80;;;;;;5003896;28;20030;-85
2022/10/06 11:22:49;;;;;;;3.60;2.13;;;;;;;;;;5000547;28;20116;-84
2022/10/06 11:25:23;;;;;;;6.45;2.65;;;;;;;;;;5018506;28;20017;-84
2022/10/06 11:27:55;;;;;;;3.05;2.10;;;;;;;;;;5000321;28;20026;-84
2022/10/06 11:30:32;;;;;;;4.20;2.15;;;;;;;;;;4999642;28;20025;-84
2022/10/06 11:33:01;;;;;;;3.38;1.77;;;;;;;;;;5015120;28;20032;-85
2022/10/06 11:35:35;;;;;;;11.80;3.25;;;;;;;;;;5020426;28;20120;-85
2022/10/06 11:38:10;;;;;;;2.45;1.83;;;;;;;;;;5037911;28;20024;-85
2022/10/06 11:41:18;;;;;;;;;;;;;;;;;;;;;
2022/10/06 11:44:09;;;;;;;2.75;2.05;;;;;;;;;;5036419;28;20105;-84
2022/10/06 11:46:45;;;;;;;6.40;2.55;;;;;;;;;;5019870;28;20028;-85
2022/10/06 12:41:03;;;;;;;4.75;2.03;;;;;;;;;;5027598;28;20042;-85
2022/10/06 12:43:52;;;;;;;2.22;1.73;;;;;;;;;;5021512;28;20040;-85
2022/10/06 12:46:37;;;;;;;10.18;2.20;;;;;;;;;;5001371;28;20026;-85
2022/10/06 12:49:13;;;;;;;8.18;2.17;;;;;;;;;;5002013;28;20113;-85
2022/10/06 12:51:43;;;;;;;6.85;1.85;;;;;;;;;;5002697;28;20103;-84
2022/10/06 12:54:31;;;;;;;2.17;1.80;;;;;;;;;;5004471;28;20026;-84
2022/10/06 12:57:02;;;;;;;3.33;2.30;;;;;;;;;;5004923;28;20037;-84
2022/10/06 12:59:28;;;;;;;4.35;2.30;;;;;;;;;;5026039;28;20060;-84
2022/10/06 13:01:59;;;;;;;4.90;2.00;;;;;;;;;;5005976;28;20034;-85
2022/10/06 13:04:33;;;;;;;5.85;2.40;;;;;;;;;;5022714;28;20034;-85
2022/10/06 13:06:59;;;;;;;2.80;1.95;;;;;;;;;;5004216;28;20033;-84
2022/10/06 13:09:25;;;;;;;4.55;2.45;;;;;;;;;;5005448;28;20029;-85
2022/10/06 13:11:55;;;;;;;4.78;2.00;;;;;;;;;;5021335;28;20041;-85
2022/10/06 13:14:21;;;;;;;5.40;1.75;;;;;;;;;;5018862;28;20083;-85
2022/10/06 13:16:47;;;;;;;2.08;1.60;;;;;;;;;;5004054;28;20022;-84
2022/10/06 13:19:13;;;;;;;6.95;2.30;;;;;;;;;;5021440;28;20022;-85
2022/10/06 13:21:49;;;;;;;2.97;1.85;;;;;;;;;;5021519;28;20025;-85
2022/10/06 13:24:20;;;;;;;3.00;1.63;;;;;;;;;;5002871;28;20034;-85
2022/10/06 13:26:47;;;;;;;2.85;2.00;;;;;;;;;;5002751;28;20033;-85
2022/10/06 13:29:20;;;;;;;1.88;1.77;;;;;;;;;;5021698;28;20046;-86
2022/10/06 13:31:52;;;;;;;4.07;1.95;;;;;;;;;;5023598;28;20425;-84
2022/10/06 13:34:28;;;;;;;5.07;1.95;;;;;;;;;;5022585;28;20030;-84
2022/10/06 13:36:54;;;;;;;3.58;1.90;;;;;;;;;;5021863;28;20029;-84
2022/10/06 13:39:25;;;;;;;6.25;2.08;;;;;;;;;;5023508;28;20034;-84
2022/10/06 13:41:59;;;;;;;2.70;1.98;;;;;;;;;;5023978;28;20034;-85
2022/10/06 13:44:28;;;;;;;4.00;1.90;;;;;;;;;;5023121;28;20030;-85
2022/10/06 13:46:57;;;;;;;4.40;1.80;;;;;;;;;;5004025;28;20032;-83
2022/10/06 13:49:46;;;;;;;2.30;2.10;;;;;;;;;;5021606;28;20022;-85
2022/10/06 13:52:19;;;;;;;4.63;1.88;;;;;;;;;;5004021;28;20144;-84
2022/10/06 13:54:51;;;;;;;5.35;1.88;;;;;;;;;;5003145;28;20033;-85
2022/10/06 13:57:17;;;;;;;;;;;;;;;;;;5003854;28;20084;-85
2022/10/06 13:59:44;;;;;;;3.90;1.90;;;;;;;;;;5020965;28;20374;-84
2022/10/06 14:02:20;;;;;;;1.58;1.48;;;;;;;;;;5003554;28;20038;-84
2022/10/06 14:05:05;;;;;;;5.38;2.10;;;;;;;;;;5008470;28;20006;-84
2022/10/06 14:07:54;;;;;;;9.18;2.10;;;;;;;;;;5020251;28;20042;-84
2022/10/06 14:10:51;;;;;;;;;;;;;;;;;;;;;
2022/10/06 14:13:44;;;;;;;3.10;1.77;;;;;;;;;;5013993;28;20125;-84
2022/10/06 14:16:49;;;;;;;;;;;;;;;;;;;;;
2022/10/06 14:24:32;;;;;;;3.17;1.77;;;;;;;;;;5059411;28;20486;-85
2022/10/06 14:27:25;;;;;;;6.25;2.70;;;;;;;;;;5042240;28;20056;-85
2022/10/06 14:39:23;;;;;;;3.53;1.63;;;;;;;;;;5059795;22;20044;-80
2022/10/06 14:41:49;;;;;;;4.50;2.10;;;;;;;;;;5037015;28;20041;-79
2022/10/06 14:44:15;;;;;;;3.63;2.00;;;;;;;;;;5039784;28;20021;-78
2022/10/06 14:46:42;;;;;;;7.38;2.08;;;;;;;;;;5034421;28;20049;-77
2022/10/06 14:49:09;;;;;;;3.38;2.03;;;;;;;;;;5033995;28;20389;-78
2022/10/06 14:51:37;;;;;;;2.90;1.52;;;;;;;;;;5033930;28;20175;-77
2022/10/06 14:54:03;;;;;;;5.25;2.17;;;;;;;;;;5035906;28;20021;-77
2022/10/06 14:56:30;;;;;;;5.22;2.72;;;;;;;;;;5049840;28;20512;-82
2022/10/06 14:58:59;;;;;;;5.30;2.30;;;;;;;;;;5039111;28;20458;-82
2022/10/06 15:01:27;;;;;;;5.88;1.90;;;;;;;;;;5057422;28;20017;-81
2022/10/06 15:03:57;;;;;;;6.93;2.50;;;;;;;;;;5059176;28;20370;-80
2022/10/06 15:09:08;;;;;;;6.35;2.33;;;;;;;;;;5052270;28;20130;-83
2022/10/06 15:11:35;;;;;;;4.97;1.95;;;;;;;;;;5060382;28;20032;-82
2022/10/06 15:14:01;;;;;;;2.60;1.90;;;;;;;;;;5060306;28;20025;-82
2022/10/06 15:16:28;;;;;;;3.67;2.53;;;;;;;;;;5046220;28;20021;-84
2022/10/06 15:18:55;;;;;;;5.47;2.70;;;;;;;;;;5075199;28;20092;-84
2022/10/06 15:21:22;;;;;;;4.75;2.30;;;;;;;;;;5060995;28;20033;-84
2022/10/06 15:23:54;;;;;;;3.03;1.95;;;;;;;;;;5024714;28;20151;-83
2022/10/06 15:29:05;;;;;;;6.50;2.33;;;;;;;;;;5068070;28;20031;-82
2022/10/06 15:31:33;;;;;;;4.55;1.85;;;;;;;;;;5068049;28;20055;-83
2022/10/06 15:34:00;;;;;;;5.18;2.60;;;;;;;;;;5045995;28;20091;-83
2022/10/06 15:36:27;;;;;;;3.95;1.92;;;;;;;;;;5043011;28;20024;-83
2022/10/06 15:38:54;;;;;;;5.75;2.35;;;;;;;;;;5042867;28;20033;-81
2022/10/06 15:41:20;;;;;;;2.08;1.70;;;;;;;;;;5061610;28;20025;-82
2022/10/06 15:43:59;;;;;;;3.40;2.10;;;;;;;;;;5042512;28;20029;-82
2022/10/06 15:46:25;;;;;;;3.83;2.15;;;;;;;;;;5060850;28;20052;-81
2022/10/06 15:48:57;;;;;;;6.22;1.92;;;;;;;;;;5042264;28;20036;-82
2022/10/06 15:51:24;;;;;;;3.85;2.28;;;;;;;;;;5039773;28;20013;-82
2022/10/06 15:53:50;;;;;;;4.30;2.13;;;;;;;;;;5055901;28;20025;-82
2022/10/06 15:56:16;;;;;;;2.67;1.77;;;;;;;;;;5044304;28;20056;-82
2022/10/06 15:58:42;;;;;;;7.63;1.90;;;;;;;;;;5041909;28;20017;-82
2022/10/06 16:01:24;;;;;;;3.97;2.05;;;;;;;;;;5032717;28;20033;-82